Time;durP1;ratioP1;P1;durP2;ratioP2;P2;SDS_P1;SDS_P2;PMS_P1;PMS_P2;Temp;Humidity;BMP_temperature;BMP_pressure;BME280_temperature;BME280_humidity;BME280_pressure;Samples;Min_cycle;Max_cycle;Signal;HPM_P1;HPM_P2
2022/08/19 00:01:27;;;;;;;23.27;19.85;;;;;;;21.32;94.94;99719.63;4983334;28;20069;-77
2022/08/19 00:03:52;;;;;;;19.88;17.85;;;;;;;21.26;95.45;99722.72;4981249;28;20038;-77
2022/08/19 00:06:18;;;;;;;20.77;18.75;;;;;;;21.25;96.65;99729.91;4984370;28;20042;-76
2022/08/19 00:08:44;;;;;;;22.08;19.85;;;;;;;21.19;98.08;99743.69;4980888;28;20042;-76
2022/08/19 00:11:10;;;;;;;20.30;18.30;;;;;;;21.17;99.16;99753.69;4980938;28;20057;-76
2022/08/19 00:13:36;;;;;;;21.38;18.95;;;;;;;21.25;98.64;99759.44;4982053;28;20039;-77
2022/08/19 00:16:02;;;;;;;22.25;18.30;;;;;;;21.30;98.57;99756.44;4984029;28;20402;-76
2022/08/19 00:18:27;;;;;;;20.08;18.17;;;;;;;21.36;97.25;99767.66;4980022;28;20046;-76
2022/08/19 00:20:53;;;;;;;21.45;19.42;;;;;;;21.37;97.73;99774.75;4983316;28;20042;-76
2022/08/19 00:23:18;;;;;;;22.48;20.35;;;;;;;21.35;97.98;99783.84;4983923;28;20026;-76
2022/08/19 00:25:44;;;;;;;21.98;19.88;;;;;;;21.39;97.72;99788.97;4983858;28;20429;-76
2022/08/19 00:28:09;;;;;;;23.58;21.50;;;;;;;21.37;97.92;99790.84;4981582;28;20393;-76
2022/08/19 00:30:35;;;;;;;25.73;23.42;;;;;;;21.34;98.83;99784.81;4984876;28;20400;-76
2022/08/19 00:33:00;;;;;;;25.67;23.38;;;;;;;21.33;97.83;99783.97;4989495;28;20035;-76
2022/08/19 00:35:27;;;;;;;24.67;22.50;;;;;;;21.30;98.79;99784.16;4989031;28;20042;-76
2022/08/19 00:37:53;;;;;;;22.75;20.75;;;;;;;21.28;99.23;99782.53;4983900;28;20128;-76
2022/08/19 00:40:19;;;;;;;23.77;21.75;;;;;;;21.31;99.86;99782.34;4987520;28;20062;-76
2022/08/19 00:42:45;;;;;;;23.83;21.50;;;;;;;21.28;99.54;99790.59;4988858;28;20092;-76
2022/08/19 00:45:23;;;;;;;25.27;22.90;;;;;;;21.23;100.00;99805.13;4987169;28;20038;-76
2022/08/19 00:47:49;;;;;;;24.23;22.00;;;;;;;21.28;99.82;99795.94;4986456;28;20038;-76
2022/08/19 00:50:17;;;;;;;26.95;24.55;;;;;;;21.28;100.00;99804.84;4984865;28;20049;-76
2022/08/19 00:52:46;;;;;;;59.58;53.15;;;;;;;21.26;100.00;99797.84;4983756;28;20039;-75
2022/08/19 00:55:21;;;;;;;26.10;23.73;;;;;;;21.26;100.00;99804.09;4986538;28;20037;-76
2022/08/19 00:57:54;;;;;;;25.70;23.33;;;;;;;21.29;100.00;99803.88;4984768;28;20057;-76
2022/08/19 01:00:20;;;;;;;36.70;33.80;;;;;;;21.27;99.64;99808.47;4983173;28;20049;-75
2022/08/19 01:02:45;;;;;;;37.22;34.63;;;;;;;21.24;100.00;99808.69;4986086;28;20034;-76
2022/08/19 01:05:15;;;;;;;43.03;39.90;;;;;;;21.23;100.00;99798.91;4987490;28;20038;-75
2022/08/19 01:07:41;;;;;;;35.97;33.10;;;;;;;21.22;100.00;99787.31;4984529;28;20045;-76
2022/08/19 01:10:12;;;;;;;37.40;34.55;;;;;;;21.20;100.00;99785.69;4982716;28;20103;-75
2022/08/19 01:12:38;;;;;;;39.95;36.90;;;;;;;21.25;100.00;99786.28;4985914;28;20077;-75
2022/08/19 01:15:08;;;;;;;83.82;78.65;;;;;;;21.25;99.97;99786.28;4985723;28;20060;-75
2022/08/19 01:17:36;;;;;;;58.75;54.80;;;;;;;21.25;100.00;99788.94;4984248;28;20399;-75
2022/08/19 01:20:03;;;;;;;51.22;47.45;;;;;;;21.23;100.00;99799.78;4991924;28;20134;-75
2022/08/19 01:22:39;;;;;;;42.17;39.17;;;;;;;21.24;100.00;99800.63;4984079;28;20039;-75
2022/08/19 01:25:06;;;;;;;37.33;34.55;;;;;;;21.23;100.00;99802.44;4989046;28;20051;-75
2022/08/19 01:27:44;;;;;;;43.13;40.03;;;;;;;21.32;99.14;99811.75;4983451;28;20098;-75
2022/08/19 01:30:14;;;;;;;35.92;33.15;;;;;;;21.36;98.95;99804.38;4987018;28;20034;-75
2022/08/19 01:32:39;;;;;;;33.85;31.42;;;;;;;21.33;99.56;99816.16;4986018;28;20038;-75
2022/08/19 01:35:05;;;;;;;40.88;37.97;;;;;;;21.38;98.39;99813.25;5001307;28;20663;-75
2022/08/19 01:37:40;;;;;;;37.22;34.40;;;;;;;21.39;98.36;99805.06;4982349;28;20041;-75
2022/08/19 01:40:07;;;;;;;47.90;44.25;;;;;;;21.41;98.62;99816.59;4984120;28;20042;-75
2022/08/19 01:42:34;;;;;;;34.40;31.70;;;;;;;21.36;98.13;99788.28;4983494;28;20045;-75
2022/08/19 01:45:00;;;;;;;52.10;48.00;;;;;;;21.35;97.50;99784.75;4984156;28;20053;-75
2022/08/19 01:47:25;;;;;;;41.53;38.40;;;;;;;21.36;97.70;99781.09;4985366;28;20412;-75
2022/08/19 01:49:50;;;;;;;40.72;37.63;;;;;;;21.34;98.27;99784.81;4982590;28;20043;-75
2022/08/19 01:52:16;;;;;;;55.83;52.17;;;;;;;21.38;97.65;99789.94;4983951;28;20031;-75
2022/08/19 01:54:41;;;;;;;46.85;43.50;;;;;;;21.35;97.09;99790.09;4983848;28;20105;-74
2022/08/19 01:57:11;;;;;;;57.40;53.40;;;;;;;21.33;97.53;99800.06;4983251;28;20057;-75
2022/08/19 01:59:36;;;;;;;46.67;43.20;;;;;;;21.28;97.76;99788.75;5000181;28;20045;-73
2022/08/19 02:02:07;;;;;;;34.92;32.38;;;;;;;21.27;97.66;99783.47;4984857;28;20133;-75
2022/08/19 02:04:32;;;;;;;28.02;25.65;;;;;;;21.27;97.99;99796.88;4983638;28;20477;-74
2022/08/19 02:06:57;;;;;;;43.17;39.30;;;;;;;21.33;97.62;99810.81;4998182;28;20038;-74
2022/08/19 02:09:24;;;;;;;45.85;42.55;;;;;;;21.21;97.93;99788.25;4984272;28;20061;-74
2022/08/19 02:11:49;;;;;;;33.13;30.42;;;;;;;21.26;97.48;99793.34;4981514;28;20378;-74
2022/08/19 02:14:15;;;;;;;39.47;36.58;;;;;;;21.23;97.76;99777.44;4985025;28;20432;-75
2022/08/19 02:16:40;;;;;;;46.42;43.13;;;;;;;21.16;98.55;99771.56;4982262;28;20409;-75
2022/08/19 02:19:05;;;;;;;31.83;29.40;;;;;;;21.13;99.14;99768.25;4983591;28;20497;-74
2022/08/19 02:21:31;;;;;;;54.80;50.72;;;;;;;21.13;98.36;99785.19;4982624;28;20110;-74
2022/08/19 02:23:58;;;;;;;30.02;27.52;;;;;;;21.14;99.18;99794.09;4980985;28;20471;-74
2022/08/19 02:26:23;;;;;;;32.40;29.77;;;;;;;21.19;98.78;99800.91;4984843;28;20035;-74
2022/08/19 02:28:49;;;;;;;41.85;38.85;;;;;;;21.19;98.57;99805.41;4985268;28;20045;-74
2022/08/19 02:31:18;;;;;;;46.70;43.50;;;;;;;21.19;97.96;99784.81;4987580;28;20493;-74
2022/08/19 02:33:44;;;;;;;26.38;24.23;;;;;;;21.24;98.10;99784.53;4985205;28;20061;-74
2022/08/19 02:36:11;;;;;;;49.72;45.78;;;;;;;21.19;98.08;99778.56;4989136;28;20038;-74
2022/08/19 02:38:37;;;;;;;30.60;28.05;;;;;;;21.23;97.88;99777.44;4987902;28;20037;-74
2022/08/19 02:41:11;;;;;;;31.83;29.45;;;;;;;21.26;97.10;99774.56;4980888;28;20035;-74
2022/08/19 02:43:38;;;;;;;23.02;21.05;;;;;;;21.23;97.71;99772.94;4982130;28;20030;-74
2022/08/19 02:46:23;;;;;;;36.42;33.65;;;;;;;21.26;97.12;99761.16;4984959;28;20489;-74
2022/08/19 02:48:50;;;;;;;37.90;35.17;;;;;;;21.28;96.78;99774.47;4984628;28;20048;-74
2022/08/19 02:51:21;;;;;;;23.85;21.88;;;;;;;21.22;96.52;99773.00;4985644;28;20109;-74
2022/08/19 02:53:46;;;;;;;77.85;72.63;;;;;;;21.18;97.47;99769.66;4983620;28;20042;-74
2022/08/19 02:56:12;;;;;;;25.10;22.77;;;;;;;21.18;98.08;99775.03;4983549;28;20038;-74
2022/08/19 02:58:37;;;;;;;28.33;25.92;;;;;;;21.15;98.27;99780.59;4982111;28;20038;-74
2022/08/19 03:01:02;;;;;;;47.60;44.40;;;;;;;21.16;97.49;99765.34;4984220;28;20038;-75
2022/08/19 03:03:28;;;;;;;24.60;22.50;;;;;;;21.13;97.60;99762.88;4987496;28;20122;-74
2022/08/19 03:06:08;;;;;;;44.10;41.00;;;;;;;21.11;97.75;99773.69;4980820;28;20544;-74
2022/08/19 03:08:33;;;;;;;57.20;53.25;;;;;;;21.00;98.53;99779.72;4985124;28;20472;-74
2022/08/19 03:10:59;;;;;;;24.95;22.95;;;;;;;20.97;98.72;99781.72;4989645;28;20037;-74
2022/08/19 03:13:24;;;;;;;55.35;51.55;;;;;;;21.00;98.04;99795.81;4982325;28;20101;-74
2022/08/19 03:15:49;;;;;;;23.83;21.48;;;;;;;20.97;98.66;99809.41;4983833;28;20046;-74
2022/08/19 03:18:16;;;;;;;39.63;36.42;;;;;;;21.04;98.20;99811.72;4983558;28;20117;-74
2022/08/19 03:20:47;;;;;;;22.55;20.48;;;;;;;21.06;97.35;99807.97;4984694;28;20105;-75
2022/08/19 03:23:13;;;;;;;37.40;34.53;;;;;;;21.09;97.24;99801.56;4981240;28;20042;-75
2022/08/19 03:25:44;;;;;;;29.75;27.45;;;;;;;21.01;97.67;99802.03;4983135;28;20042;-75
2022/08/19 03:28:11;;;;;;;23.90;21.90;;;;;;;20.98;97.83;99807.59;4982460;28;20038;-74
2022/08/19 03:30:39;;;;;;;28.23;26.02;;;;;;;20.90;98.66;99800.00;4989654;28;20092;-75
2022/08/19 03:33:05;;;;;;;22.00;20.15;;;;;;;20.88;98.46;99798.38;4985788;28;20070;-74
2022/08/19 03:35:30;;;;;;;24.38;22.17;;;;;;;20.83;98.75;99789.75;4987219;28;20038;-75
2022/08/19 03:37:56;;;;;;;37.00;34.38;;;;;;;20.81;99.01;99781.81;4986350;28;20109;-75
2022/08/19 03:40:21;;;;;;;29.58;26.85;;;;;;;20.75;99.71;99783.03;4983395;28;20501;-74
2022/08/19 03:42:47;;;;;;;25.80;23.70;;;;;;;20.70;99.94;99778.91;4982941;28;20077;-74
2022/08/19 03:45:12;;;;;;;26.20;24.00;;;;;;;20.63;100.00;99786.44;4990368;28;20054;-74
2022/08/19 03:47:38;;;;;;;23.83;21.52;;;;;;;20.64;100.00;99789.97;4983082;28;20053;-74
2022/08/19 03:50:04;;;;;;;23.13;21.02;;;;;;;20.66;99.72;99796.13;4986334;28;20035;-74
2022/08/19 03:52:29;;;;;;;23.98;21.67;;;;;;;20.67;100.00;99788.00;4989934;28;20508;-74
2022/08/19 03:54:55;;;;;;;22.50;20.50;;;;;;;20.68;99.87;99786.19;4980302;28;20035;-75
2022/08/19 03:57:20;;;;;;;23.20;21.10;;;;;;;20.64;100.00;99782.81;4982769;28;20038;-74
2022/08/19 03:59:45;;;;;;;20.20;18.27;;;;;;;20.64;100.00;99776.56;4980813;28;20054;-74
2022/08/19 04:02:12;;;;;;;26.25;23.55;;;;;;;20.59;100.00;99787.56;4985978;28;20097;-74
2022/08/19 04:04:39;;;;;;;23.38;21.30;;;;;;;20.63;100.00;99793.63;4985702;28;20436;-74
2022/08/19 04:07:05;;;;;;;22.05;20.15;;;;;;;20.65;100.00;99797.09;4988257;28;20066;-75
2022/08/19 04:09:30;;;;;;;21.70;19.80;;;;;;;20.64;100.00;99795.34;4988398;28;20058;-74
2022/08/19 04:11:57;;;;;;;20.63;18.73;;;;;;;20.60;100.00;99788.47;4988505;28;20386;-74
2022/08/19 04:14:25;;;;;;;21.50;19.45;;;;;;;20.63;100.00;99790.94;4987549;28;20034;-74
2022/08/19 04:16:52;;;;;;;21.98;19.88;;;;;;;20.65;100.00;99794.41;4984699;28;20039;-75
2022/08/19 04:19:18;;;;;;;21.95;19.98;;;;;;;20.69;99.12;99793.25;4985357;28;20041;-73
2022/08/19 04:21:46;;;;;;;22.42;20.38;;;;;;;20.75;98.80;99798.25;4988260;28;20100;-74
2022/08/19 04:24:13;;;;;;;21.33;19.30;;;;;;;20.83;97.96;99808.50;4988867;28;20037;-74
2022/08/19 04:26:39;;;;;;;21.48;19.48;;;;;;;20.90;97.35;99810.72;4988899;28;20626;-74
2022/08/19 04:29:08;;;;;;;22.52;20.33;;;;;;;20.97;96.96;99809.41;4988661;28;20589;-74
2022/08/19 04:31:35;;;;;;;23.48;21.02;;;;;;;21.04;96.70;99811.72;4989379;28;20038;-74
2022/08/19 04:34:02;;;;;;;22.58;20.48;;;;;;;21.06;96.75;99817.84;4989768;28;20501;-74
2022/08/19 04:36:45;;;;;;;22.60;20.35;;;;;;;21.15;95.63;99823.53;4982391;28;20038;-75
2022/08/19 04:39:14;;;;;;;22.73;20.30;;;;;;;21.23;95.10;99815.88;5011147;28;20033;-74
2022/08/19 04:44:24;;;;;;;22.08;20.10;;;;;;;21.36;93.84;99820.50;4992025;28;20045;-75
2022/08/19 04:46:50;;;;;;;22.00;20.02;;;;;;;21.34;94.37;99828.63;4990483;28;20214;-74
2022/08/19 04:49:17;;;;;;;22.08;20.08;;;;;;;21.40;94.11;99833.63;4988538;28;20464;-75
2022/08/19 04:51:45;;;;;;;22.55;20.50;;;;;;;21.43;93.90;99830.78;4983343;28;20039;-74
2022/08/19 04:54:10;;;;;;;23.13;20.90;;;;;;;21.51;93.79;99826.72;4986153;28;20118;-75
2022/08/19 04:56:35;;;;;;;21.77;19.73;;;;;;;21.52;92.03;99832.03;4989898;28;20059;-74
2022/08/19 04:59:04;;;;;;;26.45;23.67;;;;;;;21.57;92.83;99823.69;4988573;28;20553;-74
2022/08/19 05:01:32;;;;;;;20.85;19.05;;;;;;;21.63;92.10;99828.66;4986533;28;20053;-74
2022/08/19 05:04:03;;;;;;;20.55;18.52;;;;;;;21.60;92.67;99839.59;4985221;28;20361;-74
2022/08/19 05:06:32;;;;;;;21.27;19.50;;;;;;;21.59;92.24;99835.19;4983764;28;20121;-74
2022/08/19 05:08:57;;;;;;;24.67;22.45;;;;;;;21.61;92.06;99857.41;4984294;28;20044;-74
2022/08/19 05:11:32;;;;;;;23.33;21.05;;;;;;;21.55;93.07;99853.31;4984923;28;20034;-74
2022/08/19 05:13:57;;;;;;;22.20;20.38;;;;;;;21.61;92.56;99857.41;4986782;28;20121;-75
2022/08/19 05:16:26;;;;;;;21.00;19.13;;;;;;;21.60;92.47;99855.72;4985068;28;20126;-75
2022/08/19 05:24:22;;;;;;;21.50;19.48;;;;;;;21.37;93.43;99863.31;4986569;28;20043;-75
2022/08/19 05:26:50;;;;;;;25.20;23.08;;;;;;;21.47;92.60;99860.13;4984538;28;20049;-75
2022/08/19 05:29:19;;;;;;;22.02;20.00;;;;;;;21.49;93.24;99863.56;4987421;28;20049;-75
2022/08/19 05:31:45;;;;;;;21.77;19.98;;;;;;;21.43;93.16;99864.78;4985962;28;20042;-74
2022/08/19 05:34:11;;;;;;;31.40;28.80;;;;;;;21.36;93.90;99869.66;4986214;28;20038;-75
2022/08/19 05:36:43;;;;;;;20.42;18.35;;;;;;;21.21;95.33;99871.44;4988003;28;20049;-75
2022/08/19 05:39:19;;;;;;;20.02;18.08;;;;;;;21.20;95.75;99863.50;5000145;28;20370;-74
2022/08/19 05:41:48;;;;;;;21.65;19.85;;;;;;;21.24;96.02;99875.75;4985441;28;20046;-74
2022/08/19 05:44:14;;;;;;;21.95;19.75;;;;;;;21.25;96.08;99866.78;4985931;28;20069;-75
2022/08/19 05:46:42;;;;;;;22.83;20.40;;;;;;;21.33;94.82;99875.22;4983350;28;20042;-74
2022/08/19 05:49:07;;;;;;;19.63;17.67;;;;;;;21.30;94.52;99869.16;4985240;28;20630;-74
2022/08/19 05:51:35;;;;;;;21.40;19.60;;;;;;;21.21;95.89;99878.63;4981994;28;20034;-74
2022/08/19 05:54:02;;;;;;;21.52;19.45;;;;;;;21.14;96.72;99875.47;4984382;28;20045;-75
2022/08/19 05:56:30;;;;;;;20.60;18.70;;;;;;;21.08;96.74;99874.97;4983721;28;20035;-75
2022/08/19 05:58:55;;;;;;;20.65;18.80;;;;;;;21.04;97.51;99878.78;4982739;28;20042;-74
2022/08/19 06:01:21;;;;;;;22.10;20.15;;;;;;;21.17;96.63;99882.47;4984807;28;20053;-75
2022/08/19 06:03:47;;;;;;;20.17;18.42;;;;;;;21.17;96.78;99883.34;4981939;28;20462;-74
2022/08/19 06:06:14;;;;;;;20.63;18.90;;;;;;;21.23;95.62;99895.53;4983362;28;20119;-74
2022/08/19 06:08:40;;;;;;;19.75;18.05;;;;;;;21.22;96.03;99904.50;5014272;23;20065;-73
2022/08/19 06:11:22;;;;;;;20.58;18.65;;;;;;;21.26;96.22;99900.69;4973404;28;20074;-73
2022/08/19 06:13:52;;;;;;;18.75;17.15;;;;;;;21.32;95.82;99908.38;4971093;28;20031;-73
2022/08/19 06:16:21;;;;;;;20.17;18.15;;;;;;;21.37;95.58;99913.47;4973746;28;20089;-73
2022/08/19 06:18:53;;;;;;;21.92;19.92;;;;;;;21.37;94.86;99924.19;4971584;28;20481;-73
2022/08/19 06:21:24;;;;;;;22.95;20.95;;;;;;;21.39;94.97;99933.06;4972702;28;20042;-73
2022/08/19 06:23:51;;;;;;;21.75;19.95;;;;;;;21.41;94.59;99939.22;4973225;28;20066;-73
2022/08/19 06:26:18;;;;;;;24.50;22.40;;;;;;;21.32;95.59;99932.53;4973399;28;20042;-73
2022/08/19 06:28:46;;;;;;;22.13;20.02;;;;;;;21.37;95.18;99940.31;4969148;28;20112;-74
2022/08/19 06:31:24;;;;;;;20.38;18.48;;;;;;;21.48;94.04;99951.28;4973064;28;20035;-73
2022/08/19 06:33:49;;;;;;;21.85;19.67;;;;;;;21.51;94.00;99952.91;4973031;28;20316;-74
2022/08/19 06:36:27;;;;;;;23.63;21.30;;;;;;;21.53;93.76;99951.88;4973235;28;20505;-73
2022/08/19 06:38:53;;;;;;;22.33;20.13;;;;;;;21.53;94.23;99961.75;4973239;28;20043;-74
2022/08/19 06:41:19;;;;;;;21.42;19.42;;;;;;;21.61;93.75;99970.19;4973028;28;20089;-73
2022/08/19 06:43:44;;;;;;;20.75;18.65;;;;;;;21.66;92.58;99978.84;4973208;28;20027;-73
2022/08/19 06:46:12;;;;;;;22.42;20.52;;;;;;;21.63;92.78;99979.03;4973086;28;20042;-73
2022/08/19 06:48:38;;;;;;;21.55;19.60;;;;;;;21.57;93.42;99974.91;4973057;28;20435;-73
2022/08/19 06:51:05;;;;;;;21.23;19.38;;;;;;;21.55;94.37;99989.38;4973033;28;20038;-73
2022/08/19 06:53:31;;;;;;;22.65;20.50;;;;;;;21.56;94.50;99999.16;4972887;28;20094;-73
2022/08/19 06:56:00;;;;;;;24.70;22.30;;;;;;;21.51;94.65;99995.88;4973031;28;20480;-73
2022/08/19 06:58:25;;;;;;;21.33;19.52;;;;;;;21.54;94.33;99993.03;4972250;28;20042;-73
2022/08/19 07:00:51;;;;;;;23.17;21.17;;;;;;;21.60;93.96;100004.25;4972586;28;20484;-73
2022/08/19 07:03:17;;;;;;;25.02;22.83;;;;;;;21.56;94.37;100004.50;4972100;28;20113;-73
2022/08/19 07:05:43;;;;;;;22.23;20.17;;;;;;;21.56;94.90;100004.50;4972726;28;20413;-73
2022/08/19 07:08:09;;;;;;;20.73;18.63;;;;;;;21.63;94.45;100005.88;4972564;28;20050;-73
2022/08/19 07:10:36;;;;;;;20.27;18.48;;;;;;;21.59;94.22;100007.91;4969071;28;20045;-73
2022/08/19 07:13:03;;;;;;;22.08;19.77;;;;;;;21.64;93.67;100007.59;4972147;28;20034;-73
2022/08/19 07:15:28;;;;;;;21.52;19.50;;;;;;;21.66;93.68;100005.69;4972394;28;20447;-73
2022/08/19 07:17:55;;;;;;;22.70;20.67;;;;;;;21.71;92.74;100000.03;4972579;28;20128;-73
2022/08/19 07:20:20;;;;;;;21.17;19.42;;;;;;;21.67;93.32;100010.13;4972502;28;20497;-73
2022/08/19 07:22:45;;;;;;;20.67;18.88;;;;;;;21.64;93.69;100003.13;4975707;28;20050;-73
2022/08/19 07:25:13;;;;;;;21.17;19.27;;;;;;;21.68;93.08;100009.16;4972529;28;20166;-73
2022/08/19 07:27:38;;;;;;;22.13;20.23;;;;;;;21.72;93.54;100004.44;4972457;28;20580;-73
2022/08/19 07:30:04;;;;;;;22.67;20.55;;;;;;;21.67;93.57;100007.44;4972096;28;20159;-73
2022/08/19 07:32:30;;;;;;;22.38;20.38;;;;;;;21.62;94.37;100010.41;4971824;28;20528;-73
2022/08/19 07:34:56;;;;;;;22.25;20.35;;;;;;;21.69;93.91;100020.75;4970294;28;20038;-73
2022/08/19 07:37:21;;;;;;;21.75;19.73;;;;;;;21.73;93.49;100025.84;4971695;28;20185;-73
2022/08/19 07:39:46;;;;;;;21.08;19.23;;;;;;;21.74;93.49;100027.56;4970991;28;20523;-73
2022/08/19 07:42:13;;;;;;;22.98;21.08;;;;;;;21.68;94.18;100030.63;4972004;28;20054;-74
2022/08/19 07:44:40;;;;;;;22.77;20.88;;;;;;;21.63;94.88;100027.38;4968046;28;20540;-74
2022/08/19 07:47:06;;;;;;;23.27;21.25;;;;;;;21.61;94.83;100019.41;4969412;28;20524;-73
2022/08/19 07:49:32;;;;;;;24.77;22.40;;;;;;;21.63;94.92;100014.78;4971229;28;20572;-73
2022/08/19 07:52:02;;;;;;;25.38;23.38;;;;;;;21.71;94.80;100014.34;4970329;28;20042;-73
2022/08/19 07:54:31;;;;;;;24.73;22.65;;;;;;;21.61;95.24;100007.78;4969715;28;20058;-73
2022/08/19 07:56:57;;;;;;;23.48;21.27;;;;;;;21.52;96.71;100013.72;4971116;28;20074;-73
2022/08/19 07:59:23;;;;;;;23.35;21.50;;;;;;;21.58;96.38;100006.16;4970789;28;20039;-73
2022/08/19 08:01:49;;;;;;;24.85;22.75;;;;;;;21.65;95.95;100001.28;4971808;28;20121;-73
2022/08/19 08:09:44;;;;;;;22.33;20.33;;;;;;;21.77;94.84;99999.66;4971487;28;20192;-73
2022/08/19 08:12:19;;;;;;;23.08;20.77;;;;;;;21.83;94.56;100008.22;4970898;28;20153;-74
2022/08/19 08:14:48;;;;;;;24.60;22.00;;;;;;;21.91;94.17;100014.97;4971324;28;20141;-73
2022/08/19 08:17:19;;;;;;;24.75;22.60;;;;;;;21.85;94.43;100011.69;4971332;28;20058;-74
2022/08/19 08:19:45;;;;;;;24.13;21.57;;;;;;;21.90;94.18;100022.13;4967510;28;20061;-73
2022/08/19 08:25:04;;;;;;;22.30;20.13;;;;;;;21.94;93.54;100037.13;4965839;28;20154;-73
2022/08/19 08:27:30;;;;;;;24.63;22.23;;;;;;;21.96;92.97;100035.22;4971182;28;20118;-74
2022/08/19 08:29:56;;;;;;;25.48;23.17;;;;;;;22.05;92.95;100040.00;4970323;28;20294;-73
2022/08/19 08:32:22;;;;;;;24.35;22.15;;;;;;;22.01;92.76;100033.09;4971445;28;20092;-73
2022/08/19 08:34:48;;;;;;;28.95;26.42;;;;;;;22.06;92.60;100030.09;4972726;28;20417;-73
2022/08/19 08:37:13;;;;;;;26.00;23.88;;;;;;;22.06;92.23;100030.09;4971005;28;20046;-73
2022/08/19 08:39:39;;;;;;;27.23;25.08;;;;;;;22.00;92.31;100030.50;4963849;28;20626;-74
2022/08/19 08:42:18;;;;;;;23.95;21.92;;;;;;;22.00;92.44;100025.97;4973224;28;20034;-73
2022/08/19 08:45:00;;;;;;;27.98;25.63;;;;;;;;;;4975663;28;20045;-73
2022/08/19 08:47:32;;;;;;;25.45;23.38;;;;;;;22.20;90.15;100038.22;4972001;28;20101;-73
2022/08/19 08:50:10;;;;;;;26.30;23.98;;;;;;;22.23;90.25;100035.34;4970411;28;20108;-74
2022/08/19 08:52:42;;;;;;;26.50;24.23;;;;;;;22.41;88.84;100027.09;4973328;28;20039;-74
2022/08/19 08:55:13;;;;;;;25.48;23.27;;;;;;;22.55;88.91;100035.13;4974058;28;20386;-74
2022/08/19 08:57:48;;;;;;;24.48;22.38;;;;;;;22.51;87.96;100037.16;4974320;28;20046;-73
2022/08/19 09:00:21;;;;;;;24.25;22.20;;;;;;;22.63;87.83;100038.19;4970347;28;20039;-74
2022/08/19 09:02:47;;;;;;;28.35;26.00;;;;;;;22.80;85.57;100036.25;4973627;28;20097;-74
2022/08/19 09:05:12;;;;;;;25.60;23.50;;;;;;;22.80;85.19;100036.25;4970074;28;20049;-73
2022/08/19 09:07:56;;;;;;;26.35;24.15;;;;;;;22.96;84.63;100039.69;4973301;28;20425;-73
2022/08/19 09:10:39;;;;;;;27.60;25.05;;;;;;;23.09;82.77;100043.31;4939300;28;975879;-73
2022/08/19 09:13:15;;;;;;;28.58;26.27;;;;;;;23.13;82.62;100042.16;4972302;28;20042;-74
2022/08/19 09:15:54;;;;;;;27.17;24.98;;;;;;;23.07;83.65;100022.84;4976614;28;20057;-74
2022/08/19 09:18:20;;;;;;;27.38;24.88;;;;;;;23.28;82.49;100031.31;4972584;28;20047;-74
2022/08/19 09:20:47;;;;;;;23.00;21.13;;;;;;;23.59;82.37;100030.97;4968825;28;20085;-73
2022/08/19 09:23:13;;;;;;;24.20;22.10;;;;;;;23.66;80.58;100041.31;4973914;28;20053;-74
2022/08/19 09:25:39;;;;;;;23.23;21.13;;;;;;;23.60;80.72;100046.16;4975815;28;20035;-74
2022/08/19 09:28:06;;;;;;;25.38;23.23;;;;;;;23.50;80.05;100055.88;4974203;28;20131;-74
2022/08/19 09:30:40;;;;;;;26.20;24.00;;;;;;;23.43;80.72;100061.75;4973672;28;20043;-73
2022/08/19 09:33:06;;;;;;;24.83;22.50;;;;;;;23.25;81.35;100058.47;4974139;28;20156;-74
2022/08/19 09:35:32;;;;;;;28.52;26.00;;;;;;;23.23;82.91;100060.38;4974509;28;20034;-73
2022/08/19 09:37:59;;;;;;;30.20;27.38;;;;;;;23.19;81.47;100068.66;4974388;28;20049;-74
2022/08/19 09:40:25;;;;;;;27.95;25.45;;;;;;;23.10;82.27;100065.72;4972785;28;20121;-75
2022/08/19 09:42:51;;;;;;;23.83;21.73;;;;;;;22.99;82.79;100058.34;4973933;28;20026;-74
2022/08/19 09:45:20;;;;;;;28.67;26.02;;;;;;;23.04;82.86;100053.53;4973339;28;20137;-74
2022/08/19 09:47:46;;;;;;;36.67;33.63;;;;;;;23.08;82.45;100047.00;4974786;28;20129;-74
2022/08/19 09:50:12;;;;;;;25.73;23.25;;;;;;;23.22;82.15;100053.28;4971661;28;20404;-75
2022/08/19 09:52:37;;;;;;;28.13;25.55;;;;;;;23.38;81.69;100037.81;4973930;28;20050;-74
2022/08/19 09:55:05;;;;;;;28.27;25.52;;;;;;;23.66;79.17;100030.56;4974173;28;20387;-74
2022/08/19 09:57:30;;;;;;;26.50;24.10;;;;;;;23.76;78.40;100027.19;4974002;28;20046;-74
2022/08/19 09:59:55;;;;;;;36.58;33.60;;;;;;;23.65;78.94;100031.53;4973000;28;20042;-74
2022/08/19 10:02:21;;;;;;;26.08;23.58;;;;;;;23.60;79.02;100029.16;4972468;28;20497;-74
2022/08/19 10:07:30;;;;;;;25.40;23.13;;;;;;;23.31;80.53;100044.59;4968419;28;20568;-74
2022/08/19 10:09:56;;;;;;;26.70;24.13;;;;;;;23.30;80.23;100037.47;4976568;28;20047;-74
2022/08/19 10:12:21;;;;;;;27.77;25.15;;;;;;;23.24;80.73;100030.69;4973606;28;20038;-74
2022/08/19 10:14:47;;;;;;;31.42;28.75;;;;;;;23.22;79.52;100023.69;4973245;28;20110;-75
2022/08/19 10:17:13;;;;;;;31.60;28.92;;;;;;;23.33;79.94;100029.19;4972792;28;20089;-75
2022/08/19 10:19:39;;;;;;;28.80;26.20;;;;;;;23.51;78.29;100041.41;4972741;28;20042;-74
2022/08/19 10:22:07;;;;;;;28.20;25.45;;;;;;;23.81;77.38;100029.53;4970495;28;20035;-74
2022/08/19 10:24:35;;;;;;;28.17;25.65;;;;;;;23.92;77.29;100053.03;4970447;28;20039;-74
2022/08/19 10:27:05;;;;;;;28.63;26.15;;;;;;;23.90;76.88;100044.22;4971849;28;20157;-74
2022/08/19 10:29:31;;;;;;;27.17;24.42;;;;;;;23.66;77.22;100046.72;4973246;28;20046;-74
2022/08/19 10:31:58;;;;;;;28.23;25.65;;;;;;;23.56;77.79;100055.44;4972891;28;20039;-74
2022/08/19 10:34:24;;;;;;;25.73;23.35;;;;;;;23.45;79.35;100052.63;4975674;28;20030;-74
2022/08/19 10:36:49;;;;;;;31.23;28.42;;;;;;;23.52;78.69;100055.75;4973226;28;20061;-75
2022/08/19 10:39:15;;;;;;;27.13;24.88;;;;;;;23.42;78.86;100058.19;4972826;28;20070;-75
2022/08/19 10:41:43;;;;;;;26.33;23.75;;;;;;;23.23;80.31;100055.00;4970643;28;20047;-75
2022/08/19 10:44:11;;;;;;;29.27;26.58;;;;;;;23.15;80.21;100067.13;4970581;28;20105;-74
2022/08/19 10:46:41;;;;;;;32.08;28.80;;;;;;;23.14;80.60;100078.88;4971664;28;20463;-74
2022/08/19 10:49:08;;;;;;;32.40;29.17;;;;;;;23.02;80.66;100076.97;4974714;28;20047;-74
2022/08/19 10:54:19;;;;;;;39.03;35.47;;;;;;;23.05;80.20;100082.16;4971027;28;20045;-74
2022/08/19 10:56:53;;;;;;;29.42;26.52;;;;;;;23.04;80.36;100075.06;4971697;28;20039;-74
2022/08/19 10:59:22;;;;;;;33.75;30.45;;;;;;;23.06;80.37;100080.34;4971980;28;20039;-74
2022/08/19 11:01:49;;;;;;;28.38;25.70;;;;;;;23.14;80.28;100084.25;4972028;28;20074;-74
2022/08/19 11:04:17;;;;;;;34.47;31.27;;;;;;;23.29;79.18;100089.59;4972467;28;20039;-74
2022/08/19 11:06:49;;;;;;;29.45;26.63;;;;;;;23.31;78.89;100084.97;4969037;28;20042;-74
2022/08/19 11:09:20;;;;;;;30.25;27.45;;;;;;;23.34;79.04;100098.22;4972648;28;20038;-74
2022/08/19 11:11:47;;;;;;;;;;;;;;;23.24;80.11;100098.00;4973123;28;20031;-74
2022/08/19 11:14:15;;;;;;;35.50;32.00;;;;;;;23.10;80.54;100104.25;4972432;28;19921;-74
2022/08/19 11:16:42;;;;;;;35.38;32.08;;;;;;;22.88;82.68;100096.69;4972737;28;20544;-74
2022/08/19 11:19:09;;;;;;;34.45;31.05;;;;;;;22.80;83.46;100111.59;4972527;28;20034;-74
2022/08/19 11:21:37;;;;;;;38.42;34.72;;;;;;;22.80;83.37;100111.59;4970115;28;20038;-74
2022/08/19 11:24:08;;;;;;;37.60;33.53;;;;;;;22.75;83.59;100110.03;4972620;28;20085;-74
2022/08/19 11:26:35;;;;;;;36.80;33.03;;;;;;;22.63;84.63;100121.56;4972105;28;20042;-74
2022/08/19 11:29:02;;;;;;;38.95;32.30;;;;;;;22.58;84.13;100118.31;4972303;28;20508;-74
2022/08/19 11:31:31;;;;;;;47.72;43.25;;;;;;;22.60;84.45;100120.91;4971979;28;20041;-74
2022/08/19 11:33:59;;;;;;;36.53;31.98;;;;;;;22.68;83.47;100126.66;4972358;28;20086;-74
2022/08/19 11:36:25;;;;;;;34.03;30.38;;;;;;;22.75;83.52;100133.41;4972499;28;20026;-73
2022/08/19 11:38:51;;;;;;;33.92;30.23;;;;;;;22.70;82.94;100132.81;4969152;28;20131;-73